Time;durP1;ratioP1;P1;durP2;ratioP2;P2;SDS_P1;SDS_P2;PMS_P1;PMS_P2;Temp;Humidity;BMP_temperature;BMP_pressure;BME280_temperature;BME280_humidity;BME280_pressure;Samples;Min_cycle;Max_cycle;Signal;HPM_P1;HPM_P2
2022/02/22 00:01:16;;;;;;;;;;;21.80;32.50;;;;;;473505;252;1158;-39
2022/02/22 00:03:17;;;;;;;;;;;21.70;32.60;;;;;;473813;251;1306;-39
2022/02/22 00:05:19;;;;;;;;;;;21.70;32.50;;;;;;475905;249;1070;-39
2022/02/22 00:07:20;;;;;;;;;;;21.80;32.60;;;;;;473270;252;1219;-39
2022/02/22 00:09:21;;;;;;;;;;;21.70;32.50;;;;;;474114;251;1613;-39
2022/02/22 00:11:23;;;;;;;;;;;21.70;32.60;;;;;;476224;244;1173;-39
2022/02/22 00:13:24;;;;;;;;;;;21.70;32.60;;;;;;473328;252;2316;-39
2022/02/22 00:15:26;;;;;;;;;;;21.70;32.60;;;;;;473933;251;2349;-39
2022/02/22 00:17:26;;;;;;;;;;;21.80;32.60;;;;;;475939;249;2243;-39
2022/02/22 00:19:28;;;;;;;;;;;21.70;32.60;;;;;;473733;252;1052;-39
2022/02/22 00:21:29;;;;;;;;;;;21.70;32.70;;;;;;473941;251;1326;-39
2022/02/22 00:23:30;;;;;;;;;;;21.70;32.60;;;;;;476461;249;1030;-39
2022/02/22 00:25:32;;;;;;;;;;;21.70;32.60;;;;;;473743;252;1087;-39
2022/02/22 00:27:33;;;;;;;;;;;21.70;32.60;;;;;;473693;251;1200;-39
2022/02/22 00:29:34;;;;;;;;;;;21.70;32.60;;;;;;476055;249;1054;-39
2022/02/22 00:31:36;;;;;;;;;;;21.70;32.60;;;;;;473691;252;1230;-39
2022/02/22 00:33:37;;;;;;;;;;;21.80;32.60;;;;;;473690;251;1102;-39
2022/02/22 00:35:38;;;;;;;;;;;21.80;32.50;;;;;;476414;249;1099;-39
2022/02/22 00:37:40;;;;;;;;;;;21.70;32.50;;;;;;473179;252;2198;-39
2022/02/22 00:39:41;;;;;;;;;;;21.80;32.50;;;;;;474088;251;974;-39
2022/02/22 00:41:42;;;;;;;;;;;21.80;32.50;;;;;;475886;249;1313;-39
2022/02/22 00:43:43;;;;;;;;;;;21.70;32.60;;;;;;473341;252;1273;-39
2022/02/22 00:45:45;;;;;;;;;;;21.80;32.60;;;;;;473619;251;1347;-39
2022/02/22 00:47:46;;;;;;;;;;;21.80;32.60;;;;;;476270;249;1178;-39
2022/02/22 00:49:47;;;;;;;;;;;21.80;32.60;;;;;;473590;252;1058;-39
2022/02/22 00:51:49;;;;;;;;;;;21.80;32.60;;;;;;473835;251;1213;-39
2022/02/22 00:53:50;;;;;;;;;;;21.80;32.60;;;;;;476014;249;1209;-39
2022/02/22 00:55:51;;;;;;;;;;;21.70;32.50;;;;;;473612;252;1518;-39
2022/02/22 00:57:53;;;;;;;;;;;21.70;32.60;;;;;;473622;251;2185;-39
2022/02/22 00:59:54;;;;;;;;;;;21.80;32.60;;;;;;476044;249;1067;-39
2022/02/22 01:01:55;;;;;;;;;;;21.80;32.50;;;;;;473654;252;1376;-39
2022/02/22 01:03:57;;;;;;;;;;;21.70;32.60;;;;;;474122;251;991;-39
2022/02/22 01:05:58;;;;;;;;;;;21.80;32.60;;;;;;476032;249;1183;-39
2022/02/22 01:08:01;;;;;;;;;;;21.80;32.60;;;;;;473176;252;1196;-39
2022/02/22 01:10:01;;;;;;;;;;;21.80;32.60;;;;;;473621;251;2026;-39
2022/02/22 01:12:02;;;;;;;;;;;21.70;32.60;;;;;;476135;249;1646;-39
2022/02/22 01:14:03;;;;;;;;;;;21.70;32.60;;;;;;473295;252;1053;-39
2022/02/22 01:16:05;;;;;;;;;;;21.70;32.60;;;;;;473940;251;1324;-39
2022/02/22 01:18:06;;;;;;;;;;;21.70;32.70;;;;;;475907;249;2125;-39
2022/02/22 01:20:09;;;;;;;;;;;21.80;32.70;;;;;;473499;252;1117;-39
2022/02/22 01:22:08;;;;;;;;;;;21.70;32.60;;;;;;473632;251;1566;-39
2022/02/22 01:24:10;;;;;;;;;;;21.70;32.60;;;;;;476347;249;1058;-39
2022/02/22 01:26:12;;;;;;;;;;;21.70;32.70;;;;;;473190;252;1091;-39
2022/02/22 01:28:13;;;;;;;;;;;21.70;32.70;;;;;;473939;251;1210;-39
2022/02/22 01:30:14;;;;;;;;;;;21.70;32.60;;;;;;475938;249;1087;-39
2022/02/22 01:32:16;;;;;;;;;;;21.80;32.70;;;;;;473088;252;1200;-39
2022/02/22 01:34:17;;;;;;;;;;;21.70;32.60;;;;;;473687;251;1034;-39
2022/02/22 01:36:18;;;;;;;;;;;21.70;32.60;;;;;;475927;249;1063;-39
2022/02/22 01:38:20;;;;;;;;;;;21.70;32.60;;;;;;473289;252;2193;-39
2022/02/22 01:40:22;;;;;;;;;;;21.70;32.70;;;;;;473932;251;1225;-39
2022/02/22 01:42:23;;;;;;;;;;;21.70;32.70;;;;;;475955;249;1230;-39
2022/02/22 01:44:24;;;;;;;;;;;21.70;32.70;;;;;;473280;252;1610;-39
2022/02/22 01:46:25;;;;;;;;;;;21.70;32.60;;;;;;473579;251;1195;-39
2022/02/22 01:48:27;;;;;;;;;;;21.70;32.70;;;;;;476157;249;1240;-39
2022/02/22 01:50:28;;;;;;;;;;;21.70;32.70;;;;;;473586;252;998;-39
2022/02/22 01:52:30;;;;;;;;;;;21.70;32.70;;;;;;473863;251;1592;-39
2022/02/22 01:54:31;;;;;;;;;;;21.70;32.70;;;;;;476390;249;1256;-39
2022/02/22 01:56:32;;;;;;;;;;;21.70;32.70;;;;;;473455;252;1225;-39
2022/02/22 01:58:33;;;;;;;;;;;21.70;32.70;;;;;;473949;251;2142;-39
2022/02/22 02:00:35;;;;;;;;;;;21.70;32.70;;;;;;476381;249;988;-39
2022/02/22 02:02:36;;;;;;;;;;;21.70;32.70;;;;;;473210;252;1271;-39
2022/02/22 02:04:37;;;;;;;;;;;21.70;32.70;;;;;;473667;251;1246;-39
2022/02/22 02:06:39;;;;;;;;;;;21.70;32.70;;;;;;476240;249;1426;-39
2022/02/22 02:08:40;;;;;;;;;;;21.70;32.80;;;;;;473330;252;1228;-39
2022/02/22 02:10:41;;;;;;;;;;;21.70;32.80;;;;;;473952;251;1044;-39
2022/02/22 02:12:43;;;;;;;;;;;21.70;32.70;;;;;;476377;249;1312;-39
2022/02/22 02:14:44;;;;;;;;;;;21.70;32.70;;;;;;473732;252;1038;-39
2022/02/22 02:16:46;;;;;;;;;;;21.70;32.80;;;;;;473681;251;1201;-39
2022/02/22 02:18:47;;;;;;;;;;;21.70;32.70;;;;;;475989;249;2132;-39
2022/02/22 02:20:48;;;;;;;;;;;21.70;32.70;;;;;;473704;252;1150;-39
2022/02/22 02:22:49;;;;;;;;;;;21.70;32.80;;;;;;473717;251;1283;-39
2022/02/22 02:24:51;;;;;;;;;;;21.70;32.80;;;;;;476367;249;1096;-39
2022/02/22 02:26:52;;;;;;;;;;;21.70;32.80;;;;;;473591;252;1215;-39
2022/02/22 02:28:53;;;;;;;;;;;21.70;32.80;;;;;;473997;251;1034;-39
2022/02/22 02:30:55;;;;;;;;;;;21.70;32.70;;;;;;475989;249;1532;-39
2022/02/22 02:32:56;;;;;;;;;;;21.70;32.80;;;;;;473597;252;1069;-39
2022/02/22 02:34:57;;;;;;;;;;;21.70;32.80;;;;;;473773;251;1083;-39
2022/02/22 02:36:59;;;;;;;;;;;21.70;32.80;;;;;;476421;249;1519;-39
2022/02/22 02:39:00;;;;;;;;;;;21.70;32.80;;;;;;473381;252;2174;-39
2022/02/22 02:41:01;;;;;;;;;;;21.70;32.80;;;;;;474080;251;1344;-39
2022/02/22 02:43:03;;;;;;;;;;;21.70;32.80;;;;;;476175;249;1572;-39
2022/02/22 02:45:04;;;;;;;;;;;21.70;32.80;;;;;;473300;252;1063;-39
2022/02/22 02:47:06;;;;;;;;;;;21.70;32.80;;;;;;473658;251;1262;-39
2022/02/22 02:49:07;;;;;;;;;;;21.70;32.70;;;;;;476095;249;1115;-39
2022/02/22 02:51:08;;;;;;;;;;;21.70;32.80;;;;;;473170;252;1256;-39
2022/02/22 02:53:10;;;;;;;;;;;21.70;32.80;;;;;;473632;251;1322;-39
2022/02/22 02:55:11;;;;;;;;;;;21.70;32.80;;;;;;476093;249;998;-39
2022/02/22 02:57:14;;;;;;;;;;;21.70;32.80;;;;;;473296;252;1139;-39
2022/02/22 02:59:14;;;;;;;;;;;21.70;32.80;;;;;;473844;251;2281;-39
2022/02/22 03:01:16;;;;;;;;;;;21.70;32.80;;;;;;476080;249;1355;-39
2022/02/22 03:03:17;;;;;;;;;;;21.70;32.80;;;;;;473263;252;1258;-39
2022/02/22 03:05:18;;;;;;;;;;;21.70;32.80;;;;;;473630;251;1368;-39
2022/02/22 03:07:20;;;;;;;;;;;21.70;32.80;;;;;;475935;249;1133;-39
2022/02/22 03:09:21;;;;;;;;;;;21.70;32.80;;;;;;473354;252;1394;-39
2022/02/22 03:11:22;;;;;;;;;;;21.70;32.80;;;;;;473909;251;1327;-39
2022/02/22 03:13:24;;;;;;;;;;;21.70;32.90;;;;;;475984;249;1213;-39
2022/02/22 03:15:25;;;;;;;;;;;21.70;32.80;;;;;;473494;252;1248;-39
2022/02/22 03:17:26;;;;;;;;;;;21.70;32.80;;;;;;473804;251;1159;-39
2022/02/22 03:19:28;;;;;;;;;;;21.70;32.80;;;;;;476411;249;2117;-39
2022/02/22 03:21:30;;;;;;;;;;;21.60;32.80;;;;;;473481;252;1284;-39
2022/02/22 03:23:31;;;;;;;;;;;21.70;32.80;;;;;;473961;251;1140;-39
2022/02/22 03:25:32;;;;;;;;;;;21.70;32.80;;;;;;475977;249;1139;-39
2022/02/22 03:27:33;;;;;;;;;;;21.70;32.80;;;;;;473249;252;1149;-39
2022/02/22 03:29:35;;;;;;;;;;;21.80;32.80;;;;;;473810;251;1112;-39
2022/02/22 03:31:36;;;;;;;;;;;21.80;32.70;;;;;;476046;249;1332;-39
2022/02/22 03:33:37;;;;;;;;;;;21.80;32.80;;;;;;473640;252;1049;-39
2022/02/22 03:35:39;;;;;;;;;;;21.80;32.80;;;;;;473651;251;1159;-39
2022/02/22 03:37:41;;;;;;;;;;;21.70;32.70;;;;;;475989;249;1195;-39
2022/02/22 03:39:42;;;;;;;;;;;21.70;32.80;;;;;;473341;250;2189;-39
2022/02/22 03:41:43;;;;;;;;;;;21.70;32.80;;;;;;473785;251;1317;-39
2022/02/22 03:43:45;;;;;;;;;;;21.70;32.80;;;;;;476139;249;1227;-39
2022/02/22 03:45:46;;;;;;;;;;;21.80;32.70;;;;;;473662;252;1068;-39
2022/02/22 03:47:48;;;;;;;;;;;21.80;32.70;;;;;;473612;251;1170;-39
2022/02/22 03:49:49;;;;;;;;;;;21.80;32.70;;;;;;476439;249;1055;-39
2022/02/22 03:51:50;;;;;;;;;;;21.70;32.80;;;;;;473559;252;1443;-39
2022/02/22 03:53:52;;;;;;;;;;;21.70;32.80;;;;;;474001;251;1165;-39
2022/02/22 03:55:53;;;;;;;;;;;21.70;32.80;;;;;;476432;249;1064;-39
2022/02/22 03:57:54;;;;;;;;;;;21.70;32.90;;;;;;473674;252;1324;-39
2022/02/22 03:59:55;;;;;;;;;;;21.70;32.90;;;;;;473725;251;2217;-39
2022/02/22 04:01:57;;;;;;;;;;;21.70;32.90;;;;;;476357;249;1130;-40
2022/02/22 04:03:58;;;;;;;;;;;21.70;32.80;;;;;;473243;252;2211;-39
2022/02/22 04:05:59;;;;;;;;;;;21.70;32.90;;;;;;473775;251;1135;-39
2022/02/22 04:08:01;;;;;;;;;;;21.70;32.90;;;;;;475955;249;1195;-39
2022/02/22 04:10:02;;;;;;;;;;;21.70;32.80;;;;;;473332;252;1518;-39
2022/02/22 04:12:03;;;;;;;;;;;21.70;32.90;;;;;;473585;251;1420;-39
2022/02/22 04:14:05;;;;;;;;;;;21.70;32.80;;;;;;475958;249;1588;-39
2022/02/22 04:16:06;;;;;;;;;;;21.70;32.80;;;;;;473232;252;1066;-39
2022/02/22 04:18:07;;;;;;;;;;;21.80;32.80;;;;;;473635;251;1439;-39
2022/02/22 04:20:09;;;;;;;;;;;21.70;32.70;;;;;;476025;249;1160;-39
2022/02/22 04:22:10;;;;;;;;;;;21.70;32.80;;;;;;473370;252;1145;-39
2022/02/22 04:24:11;;;;;;;;;;;21.80;32.90;;;;;;473995;251;1202;-40
2022/02/22 04:26:13;;;;;;;;;;;21.80;32.80;;;;;;476047;249;1252;-39
2022/02/22 04:28:14;;;;;;;;;;;21.70;32.80;;;;;;473516;252;1251;-39
2022/02/22 04:30:15;;;;;;;;;;;21.70;32.80;;;;;;473816;251;970;-39
2022/02/22 04:32:17;;;;;;;;;;;21.70;32.90;;;;;;476269;249;1579;-39
2022/02/22 04:34:18;;;;;;;;;;;21.70;32.90;;;;;;473335;252;1337;-39
2022/02/22 04:36:19;;;;;;;;;;;21.70;32.90;;;;;;473639;251;1218;-39
2022/02/22 04:38:21;;;;;;;;;;;21.70;32.90;;;;;;476216;249;2124;-39
2022/02/22 04:40:22;;;;;;;;;;;21.70;32.90;;;;;;473329;252;1394;-39
2022/02/22 04:42:23;;;;;;;;;;;21.80;32.90;;;;;;473983;251;1180;-39
2022/02/22 04:44:25;;;;;;;;;;;21.80;32.80;;;;;;476398;249;1247;-39
2022/02/22 04:46:26;;;;;;;;;;;21.80;32.80;;;;;;473363;252;1224;-39
2022/02/22 04:48:27;;;;;;;;;;;21.80;32.80;;;;;;474056;251;1172;-39
2022/02/22 04:50:29;;;;;;;;;;;21.70;32.80;;;;;;476414;245;1530;-39
2022/02/22 04:52:30;;;;;;;;;;;21.80;32.80;;;;;;473198;252;1350;-39
2022/02/22 04:54:31;;;;;;;;;;;21.70;32.80;;;;;;474010;251;1222;-39
2022/02/22 04:56:33;;;;;;;;;;;21.70;32.80;;;;;;475996;249;1462;-39
2022/02/22 04:58:34;;;;;;;;;;;21.70;32.90;;;;;;473258;252;2194;-39
2022/02/22 05:00:35;;;;;;;;;;;21.70;32.80;;;;;;473726;244;1447;-39
2022/02/22 05:02:37;;;;;;;;;;;21.80;32.90;;;;;;476073;249;1635;-39
2022/02/22 05:04:38;;;;;;;;;;;21.80;32.80;;;;;;473279;252;1078;-39
2022/02/22 05:06:39;;;;;;;;;;;21.80;32.80;;;;;;474005;251;1599;-39
2022/02/22 05:08:40;;;;;;;;;;;21.80;32.80;;;;;;476076;249;1240;-39
2022/02/22 05:10:42;;;;;;;;;;;21.80;32.80;;;;;;473271;252;1235;-39
2022/02/22 05:15:04;;;;;;;;;;;21.80;32.80;;;;;;476417;249;1092;-39
2022/02/22 05:17:05;;;;;;;;;;;21.80;32.80;;;;;;473267;252;1307;-39
2022/02/22 05:19:07;;;;;;;;;;;21.80;32.80;;;;;;473576;251;2197;-39
2022/02/22 05:21:08;;;;;;;;;;;21.80;32.80;;;;;;476206;249;1310;-39
2022/02/22 05:23:09;;;;;;;;;;;21.80;32.90;;;;;;473251;252;1253;-39
2022/02/22 05:25:10;;;;;;;;;;;21.80;32.90;;;;;;473605;251;1221;-39
2022/02/22 05:27:12;;;;;;;;;;;21.80;32.90;;;;;;476099;249;1478;-39
2022/02/22 05:29:13;;;;;;;;;;;21.70;32.90;;;;;;473256;252;1093;-39
2022/02/22 05:31:16;;;;;;;;;;;21.70;32.90;;;;;;473864;251;1420;-39
2022/02/22 05:33:16;;;;;;;;;;;21.70;32.90;;;;;;475732;250;2180;-39
2022/02/22 05:35:17;;;;;;;;;;;21.80;32.90;;;;;;473550;252;1405;-39
2022/02/22 05:37:19;;;;;;;;;;;21.80;32.80;;;;;;473512;251;1105;-39
2022/02/22 05:39:20;;;;;;;;;;;21.80;32.80;;;;;;476285;249;2121;-39
2022/02/22 05:41:21;;;;;;;;;;;21.80;32.90;;;;;;473160;252;1340;-39
2022/02/22 05:43:23;;;;;;;;;;;21.70;32.90;;;;;;473641;251;1395;-39
2022/02/22 05:45:24;;;;;;;;;;;21.80;33.00;;;;;;476312;249;1049;-39
2022/02/22 05:47:26;;;;;;;;;;;21.70;33.00;;;;;;473094;252;1198;-39
2022/02/22 05:49:26;;;;;;;;;;;21.70;32.90;;;;;;473508;251;2172;-39
2022/02/22 05:51:28;;;;;;;;;;;21.70;32.90;;;;;;475775;249;1363;-39
2022/02/22 05:53:29;;;;;;;;;;;21.70;33.00;;;;;;473189;252;1117;-39
2022/02/22 05:55:30;;;;;;;;;;;21.80;32.90;;;;;;473752;251;1247;-39
2022/02/22 05:57:32;;;;;;;;;;;21.70;32.90;;;;;;475761;249;1205;-39
2022/02/22 05:59:33;;;;;;;;;;;21.70;32.90;;;;;;473208;252;2222;-39
2022/02/22 06:01:34;;;;;;;;;;;21.70;32.90;;;;;;473609;251;1412;-39
2022/02/22 06:03:36;;;;;;;;;;;21.70;32.90;;;;;;475923;249;1082;-39
2022/02/22 06:05:37;;;;;;;;;;;21.70;32.90;;;;;;473274;252;1269;-39
2022/02/22 06:07:38;;;;;;;;;;;21.80;32.90;;;;;;473340;251;1201;-39
2022/02/22 06:09:40;;;;;;;;;;;21.80;32.90;;;;;;476204;249;1242;-39
2022/02/22 06:11:42;;;;;;;;;;;21.80;32.90;;;;;;473044;252;1224;-39
2022/02/22 06:13:42;;;;;;;;;;;21.80;32.90;;;;;;473646;251;2215;-39
2022/02/22 06:15:44;;;;;;;;;;;21.80;32.90;;;;;;475650;249;1292;-39
2022/02/22 06:17:45;;;;;;;;;;;21.80;32.90;;;;;;472970;252;1171;-39
2022/02/22 06:19:46;;;;;;;;;;;21.80;32.90;;;;;;473466;251;2254;-39
2022/02/22 06:21:48;;;;;;;;;;;21.80;32.90;;;;;;475766;249;1088;-39
2022/02/22 06:23:49;;;;;;;;;;;21.80;32.90;;;;;;473156;252;1104;-39
2022/02/22 06:25:50;;;;;;;;;;;21.80;32.90;;;;;;473387;251;1225;-39
2022/02/22 06:27:52;;;;;;;;;;;21.80;32.90;;;;;;475519;249;1184;-39
2022/02/22 06:29:53;;;;;;;;;;;21.80;32.90;;;;;;473073;252;1072;-39
2022/02/22 06:31:54;;;;;;;;;;;21.80;33.00;;;;;;473367;251;1218;-39
2022/02/22 06:33:56;;;;;;;;;;;21.70;32.90;;;;;;476016;249;1454;-39
2022/02/22 06:35:57;;;;;;;;;;;21.80;32.90;;;;;;472926;252;1219;-39
2022/02/22 06:37:58;;;;;;;;;;;21.70;32.90;;;;;;473224;251;1097;-39
2022/02/22 06:40:00;;;;;;;;;;;21.80;32.90;;;;;;475617;249;2173;-39
2022/02/22 06:42:01;;;;;;;;;;;21.80;32.90;;;;;;472940;252;1211;-39
2022/02/22 06:44:02;;;;;;;;;;;21.80;32.90;;;;;;473254;251;1293;-39
2022/02/22 06:46:04;;;;;;;;;;;21.80;32.90;;;;;;475625;249;1070;-39
2022/02/22 06:48:06;;;;;;;;;;;21.80;32.90;;;;;;473094;252;1340;-39
2022/02/22 06:50:06;;;;;;;;;;;21.70;32.90;;;;;;473357;251;2332;-39
2022/02/22 06:52:08;;;;;;;;;;;21.80;32.90;;;;;;475798;249;1080;-39
2022/02/22 06:54:09;;;;;;;;;;;21.80;32.90;;;;;;472974;252;1182;-39
2022/02/22 06:56:10;;;;;;;;;;;21.80;32.90;;;;;;473336;251;1139;-39
2022/02/22 06:58:12;;;;;;;;;;;21.80;32.90;;;;;;475815;249;1186;-39
2022/02/22 07:00:13;;;;;;;;;;;21.80;32.90;;;;;;473027;252;2131;-39
2022/02/22 07:02:14;;;;;;;;;;;21.80;32.90;;;;;;473349;251;1264;-39
2022/02/22 07:04:16;;;;;;;;;;;21.80;32.90;;;;;;475727;249;1126;-39
2022/02/22 07:06:17;;;;;;;;;;;21.80;32.90;;;;;;472697;252;1155;-39
2022/02/22 07:08:18;;;;;;;;;;;21.80;32.90;;;;;;473126;251;1101;-39
2022/02/22 07:10:20;;;;;;;;;;;21.80;32.90;;;;;;475464;249;1095;-39
2022/02/22 07:12:21;;;;;;;;;;;21.80;32.90;;;;;;472622;252;1221;-39
2022/02/22 07:14:22;;;;;;;;;;;21.70;32.90;;;;;;473099;251;1118;-39
2022/02/22 07:16:24;;;;;;;;;;;21.80;32.90;;;;;;475356;249;2191;-39
2022/02/22 07:18:25;;;;;;;;;;;21.80;32.80;;;;;;472330;252;1088;-39
2022/02/22 07:20:27;;;;;;;;;;;21.80;32.80;;;;;;473076;251;2146;-39
2022/02/22 07:22:28;;;;;;;;;;;21.80;32.80;;;;;;475651;249;1065;-39
2022/02/22 07:24:29;;;;;;;;;;;21.80;32.70;;;;;;472774;252;1046;-39
2022/02/22 07:26:31;;;;;;;;;;;21.90;32.80;;;;;;473009;251;1175;-39
2022/02/22 07:28:32;;;;;;;;;;;21.80;32.70;;;;;;475396;249;1104;-39
2022/02/22 07:30:33;;;;;;;;;;;21.80;32.70;;;;;;472793;252;1095;-39
2022/02/22 07:32:34;;;;;;;;;;;21.80;32.70;;;;;;472937;251;1182;-39
2022/02/22 07:34:36;;;;;;;;;;;21.80;32.70;;;;;;475316;249;1090;-39
2022/02/22 07:36:37;;;;;;;;;;;21.80;32.70;;;;;;472474;252;1128;-39
2022/02/22 07:38:39;;;;;;;;;;;21.80;32.70;;;;;;473572;251;1024;-39
2022/02/22 07:40:40;;;;;;;;;;;21.80;32.70;;;;;;475566;249;2199;-39
2022/02/22 07:42:41;;;;;;;;;;;21.80;32.70;;;;;;472623;252;1223;-39
2022/02/22 07:44:43;;;;;;;;;;;21.80;32.70;;;;;;473147;251;1223;-39
2022/02/22 07:46:44;;;;;;;;;;;21.90;32.70;;;;;;475487;249;1223;-39
2022/02/22 07:48:45;;;;;;;;;;;21.80;32.60;;;;;;472694;252;1350;-39
2022/02/22 07:50:47;;;;;;;;;;;21.80;32.70;;;;;;473139;251;1439;-39
2022/02/22 07:52:48;;;;;;;;;;;21.90;32.70;;;;;;475449;249;1077;-39
2022/02/22 07:54:49;;;;;;;;;;;21.80;32.70;;;;;;472621;252;1177;-39
2022/02/22 07:56:51;;;;;;;;;;;21.80;32.70;;;;;;473081;251;1190;-39
2022/02/22 07:58:52;;;;;;;;;;;21.80;32.70;;;;;;475438;249;1099;-39
2022/02/22 08:00:53;;;;;;;;;;;21.80;32.70;;;;;;472447;252;2186;-39
2022/02/22 08:02:55;;;;;;;;;;;21.80;32.70;;;;;;473058;251;1259;-39
2022/02/22 08:04:56;;;;;;;;;;;21.80;32.70;;;;;;475365;249;1100;-39
2022/02/22 08:06:57;;;;;;;;;;;21.80;32.70;;;;;;472545;252;1215;-39
2022/02/22 08:08:59;;;;;;;;;;;21.80;32.70;;;;;;473079;251;1085;-39
2022/02/22 08:11:00;;;;;;;;;;;21.80;32.70;;;;;;475373;249;1077;-39
2022/02/22 08:13:02;;;;;;;;;;;21.80;32.70;;;;;;472525;252;1190;-39
2022/02/22 08:15:03;;;;;;;;;;;21.80;32.70;;;;;;472882;251;1114;-39
2022/02/22 08:17:04;;;;;;;;;;;21.80;32.70;;;;;;475141;249;1178;-40
2022/02/22 08:19:07;;;;;;;;;;;21.80;32.80;;;;;;472529;252;1071;-39
2022/02/22 08:21:07;;;;;;;;;;;21.80;32.70;;;;;;472772;251;2240;-39
2022/02/22 08:23:08;;;;;;;;;;;21.90;32.70;;;;;;475201;249;1303;-39
2022/02/22 08:25:10;;;;;;;;;;;21.90;32.70;;;;;;472460;252;1109;-39
2022/02/22 08:27:12;;;;;;;;;;;21.90;32.70;;;;;;472936;251;1471;-39
2022/02/22 08:29:12;;;;;;;;;;;21.90;32.70;;;;;;475239;250;1522;-39
2022/02/22 08:31:13;;;;;;;;;;;21.90;32.60;;;;;;472523;252;1070;-39
2022/02/22 08:33:15;;;;;;;;;;;21.90;32.60;;;;;;472897;251;1214;-39
2022/02/22 08:35:16;;;;;;;;;;;22.00;32.70;;;;;;475059;249;1052;-39
2022/02/22 08:37:18;;;;;;;;;;;22.00;32.60;;;;;;472465;252;1192;-39
2022/02/22 08:39:22;;;;;;;;;;;22.00;32.60;;;;;;473026;251;1218;-39
2022/02/22 08:41:20;;;;;;;;;;;22.00;32.60;;;;;;474893;250;2180;-39
2022/02/22 08:43:22;;;;;;;;;;;22.00;32.60;;;;;;472323;252;1209;-39
2022/02/22 08:45:24;;;;;;;;;;;22.00;32.60;;;;;;472772;251;1127;-39
2022/02/22 08:47:24;;;;;;;;;;;22.00;32.50;;;;;;475158;249;1373;-39
2022/02/22 08:49:26;;;;;;;;;;;22.10;32.60;;;;;;472382;252;1607;-39
2022/02/22 08:51:27;;;;;;;;;;;22.00;32.50;;;;;;472972;251;1321;-39
2022/02/22 08:53:28;;;;;;;;;;;22.00;32.50;;;;;;475186;249;1240;-39
2022/02/22 08:55:30;;;;;;;;;;;22.00;32.50;;;;;;472423;252;1087;-39
2022/02/22 08:57:31;;;;;;;;;;;22.00;32.50;;;;;;472909;251;1338;-39
2022/02/22 08:59:33;;;;;;;;;;;22.10;32.50;;;;;;475155;249;1111;-39
2022/02/22 09:01:34;;;;;;;;;;;22.10;32.50;;;;;;472427;252;2193;-39
2022/02/22 09:03:35;;;;;;;;;;;22.00;32.40;;;;;;472802;251;1111;-39
2022/02/22 09:05:37;;;;;;;;;;;22.10;32.50;;;;;;475018;249;1052;-39
2022/02/22 09:07:38;;;;;;;;;;;22.10;32.50;;;;;;472356;252;1225;-39
2022/02/22 09:09:39;;;;;;;;;;;22.00;32.50;;;;;;472917;251;1073;-39
2022/02/22 09:11:41;;;;;;;;;;;22.10;32.60;;;;;;474928;246;1142;-39
2022/02/22 09:13:42;;;;;;;;;;;22.10;32.50;;;;;;472284;252;1181;-39
2022/02/22 09:15:43;;;;;;;;;;;22.10;32.50;;;;;;472592;251;1367;-39
2022/02/22 09:17:45;;;;;;;;;;;22.10;32.50;;;;;;475326;249;1092;-39
2022/02/22 09:19:46;;;;;;;;;;;22.10;32.50;;;;;;472314;252;1088;-39
2022/02/22 09:21:47;;;;;;;;;;;22.10;32.50;;;;;;472655;251;2261;-39
2022/02/22 09:23:49;;;;;;;;;;;22.10;32.50;;;;;;475250;249;861;-39
2022/02/22 09:25:50;;;;;;;;;;;22.10;32.50;;;;;;472537;252;1419;-39
2022/02/22 09:27:51;;;;;;;;;;;22.10;32.50;;;;;;472945;251;1152;-39
2022/02/22 09:29:53;;;;;;;;;;;22.10;32.50;;;;;;475270;249;1138;-39
2022/02/22 09:31:54;;;;;;;;;;;22.10;32.50;;;;;;472470;252;1234;-39
2022/02/22 09:33:55;;;;;;;;;;;22.10;32.50;;;;;;472915;251;1082;-39
2022/02/22 09:35:57;;;;;;;;;;;22.10;32.50;;;;;;475158;249;1076;-39
2022/02/22 09:37:58;;;;;;;;;;;22.10;32.50;;;;;;472370;252;1167;-39
2022/02/22 09:39:59;;;;;;;;;;;22.20;32.50;;;;;;472876;251;1122;-39
2022/02/22 09:42:01;;;;;;;;;;;22.10;32.60;;;;;;475208;249;2203;-40
2022/02/22 09:44:02;;;;;;;;;;;22.20;32.50;;;;;;472476;252;1148;-40
2022/02/22 09:46:04;;;;;;;;;;;22.20;32.50;;;;;;472817;251;1174;-39
2022/02/22 09:48:05;;;;;;;;;;;22.20;32.50;;;;;;475705;249;1904;-39
2022/02/22 09:50:06;;;;;;;;;;;22.20;32.40;;;;;;472903;252;1367;-39
2022/02/22 09:52:08;;;;;;;;;;;22.20;32.40;;;;;;472830;251;1245;-39
2022/02/22 09:54:09;;;;;;;;;;;22.20;32.40;;;;;;475173;249;1345;-39
2022/02/22 09:56:10;;;;;;;;;;;22.20;32.50;;;;;;472210;252;1260;-39
2022/02/22 09:58:11;;;;;;;;;;;22.20;32.40;;;;;;472733;251;1369;-39
2022/02/22 10:00:13;;;;;;;;;;;22.20;32.40;;;;;;475126;249;2191;-39
2022/02/22 10:02:14;;;;;;;;;;;22.20;32.40;;;;;;472491;252;1082;-39
2022/02/22 10:04:15;;;;;;;;;;;22.20;32.40;;;;;;472966;251;1212;-39
2022/02/22 10:06:17;;;;;;;;;;;22.30;32.50;;;;;;475055;249;1404;-39
2022/02/22 10:08:18;;;;;;;;;;;22.20;32.50;;;;;;472331;252;1379;-39
2022/02/22 10:10:20;;;;;;;;;;;22.20;32.50;;;;;;472777;251;1328;-39
2022/02/22 10:12:21;;;;;;;;;;;22.30;32.50;;;;;;474955;249;1275;-39
2022/02/22 10:14:22;;;;;;;;;;;22.20;32.60;;;;;;472313;252;1161;-39
2022/02/22 10:16:23;;;;;;;;;;;22.20;32.60;;;;;;472953;251;1318;-39
2022/02/22 10:18:25;;;;;;;;;;;22.20;32.70;;;;;;475311;249;1117;-39
2022/02/22 10:20:26;;;;;;;;;;;22.20;32.70;;;;;;472618;252;2186;-39
2022/02/22 10:22:28;;;;;;;;;;;22.20;32.60;;;;;;472838;251;1213;-39
2022/02/22 10:24:29;;;;;;;;;;;22.20;32.60;;;;;;475251;249;1165;-39
2022/02/22 10:26:30;;;;;;;;;;;22.20;32.70;;;;;;472365;252;1344;-39
2022/02/22 10:28:32;;;;;;;;;;;22.20;32.70;;;;;;472955;251;1213;-39
2022/02/22 10:30:38;;;;;;;;;;;22.20;32.70;;;;;;475248;249;1254;-39
2022/02/22 10:32:36;;;;;;;;;;;22.10;32.70;;;;;;472264;252;1826;-40
2022/02/22 10:34:37;;;;;;;;;;;22.20;32.70;;;;;;472957;251;1173;-39
2022/02/22 10:36:38;;;;;;;;;;;22.20;32.70;;;;;;475035;249;1181;-39
2022/02/22 10:38:40;;;;;;;;;;;22.20;32.70;;;;;;472438;252;1085;-39
2022/02/22 10:40:41;;;;;;;;;;;22.20;32.70;;;;;;472882;251;2206;-39
2022/02/22 10:42:42;;;;;;;;;;;22.20;32.70;;;;;;475225;249;1170;-39
2022/02/22 10:44:44;;;;;;;;;;;22.20;32.70;;;;;;472590;252;1182;-39
2022/02/22 10:46:47;;;;;;;;;;;22.30;32.70;;;;;;472891;251;1214;-39
2022/02/22 10:48:47;;;;;;;;;;;22.20;32.60;;;;;;475344;250;2165;-39
2022/02/22 10:50:48;;;;;;;;;;;22.30;32.70;;;;;;472406;252;1397;-39
2022/02/22 10:52:49;;;;;;;;;;;22.20;32.70;;;;;;473075;251;1273;-39
2022/02/22 10:54:51;;;;;;;;;;;22.30;32.70;;;;;;475430;249;1106;-39
2022/02/22 10:56:52;;;;;;;;;;;22.30;32.70;;;;;;472203;252;1269;-39
2022/02/22 10:58:54;;;;;;;;;;;22.20;32.70;;;;;;472772;251;1200;-39
2022/02/22 11:00:55;;;;;;;;;;;22.30;32.60;;;;;;475063;249;2204;-39
2022/02/22 11:02:56;;;;;;;;;;;22.30;32.60;;;;;;472322;252;1246;-39
2022/02/22 11:04:58;;;;;;;;;;;22.30;32.60;;;;;;472819;251;1064;-39
2022/02/22 11:06:59;;;;;;;;;;;22.40;32.60;;;;;;474909;249;1837;-39
2022/02/22 11:09:00;;;;;;;;;;;22.30;32.60;;;;;;472398;252;1143;-39
2022/02/22 11:11:02;;;;;;;;;;;22.30;32.70;;;;;;472837;245;1176;-39
2022/02/22 11:13:03;;;;;;;;;;;22.30;32.60;;;;;;475913;249;1035;-39
2022/02/22 11:15:04;;;;;;;;;;;22.30;32.60;;;;;;472552;250;1203;-39
2022/02/22 11:17:05;;;;;;;;;;;22.30;32.60;;;;;;473018;251;1255;-39
2022/02/22 11:19:07;;;;;;;;;;;22.30;32.60;;;;;;475574;249;903;-39
2022/02/22 11:21:08;;;;;;;;;;;22.30;32.60;;;;;;473142;252;2197;-39
2022/02/22 11:23:11;;;;;;;;;;;22.30;32.60;;;;;;473568;251;1012;-39
2022/02/22 11:25:11;;;;;;;;;;;22.30;32.70;;;;;;475503;249;2420;-39
2022/02/22 11:27:12;;;;;;;;;;;22.30;32.60;;;;;;472908;252;1322;-39
2022/02/22 11:29:13;;;;;;;;;;;22.30;32.60;;;;;;473116;251;1185;-39
2022/02/22 11:31:15;;;;;;;;;;;22.30;32.60;;;;;;475164;249;1162;-39
2022/02/22 11:33:18;;;;;;;;;;;22.30;32.60;;;;;;472613;252;1084;-39
2022/02/22 11:35:18;;;;;;;;;;;22.30;32.60;;;;;;472831;251;2044;-39
2022/02/22 11:37:19;;;;;;;;;;;22.30;32.60;;;;;;475103;249;1212;-39
2022/02/22 11:39:20;;;;;;;;;;;22.30;32.70;;;;;;472466;252;1211;-39
2022/02/22 11:41:21;;;;;;;;;;;22.20;32.70;;;;;;472963;251;2201;-39
2022/02/22 11:43:23;;;;;;;;;;;22.30;32.70;;;;;;475112;249;1111;-39
2022/02/22 11:45:24;;;;;;;;;;;22.30;32.70;;;;;;472487;252;1228;-39
2022/02/22 11:47:26;;;;;;;;;;;22.30;32.70;;;;;;473007;251;1243;-39
2022/02/22 11:49:27;;;;;;;;;;;22.30;32.60;;;;;;475316;249;1138;-39
2022/02/22 11:51:28;;;;;;;;;;;22.30;32.50;;;;;;472333;252;1265;-39
2022/02/22 11:53:29;;;;;;;;;;;22.30;32.50;;;;;;472727;251;1095;-39
2022/02/22 11:55:31;;;;;;;;;;;22.30;32.60;;;;;;474974;249;1062;-39
2022/02/22 11:57:32;;;;;;;;;;;22.30;32.50;;;;;;472470;252;1252;-39
2022/02/22 11:59:34;;;;;;;;;;;22.30;32.50;;;;;;472858;251;1219;-39